Estancia Velha, Brazil
Current Conditions -  °F | °C
As of 10:00 PM on Monday 26 Jan 2015 (Local Time) from SBCO Reporting Station
Clear Clear  
Wind Chill: 79°   Ceiling: Unl
Heat Index: 82°   Visibility: 6mi
Dew Point: 73°   Wind: 7mph
Humidity: 83%   Direction: 140°SE
Pressure: 29.83"   Gusts: NA
Location:  29.65°S, 51.17°W
Report Text: SBCO 270000Z 14006KT CAVOK 26/23 Q1010
Loading
Personal Weather Stations






























Interactive Weather Map New forecast layout! Learn more

10-Day Weather Forecast

Advertisements
Track Severe Weather on mobile